sensor_id;sensor_type;location;lat;lon;timestamp;temperature;humidity
3876;DHT22;1953;51.222;6.624;2022-12-07T00:03:36;6.80;1.00
3876;DHT22;1953;51.222;6.624;2022-12-07T00:08:49;6.70;1.00
3876;DHT22;1953;51.222;6.624;2022-12-07T00:13:32;6.60;1.00
3876;DHT22;1953;51.222;6.624;2022-12-07T00:18:15;6.60;1.00
3876;DHT22;1953;51.222;6.624;2022-12-07T00:22:57;6.70;1.00
3876;DHT22;1953;51.222;6.624;2022-12-07T00:27:41;6.70;1.00
3876;DHT22;1953;51.222;6.624;2022-12-07T00:32:24;6.60;1.00
3876;DHT22;1953;51.222;6.624;2022-12-07T00:37:06;6.60;1.00
3876;DHT22;1953;51.222;6.624;2022-12-07T00:41:48;6.70;1.00
3876;DHT22;1953;51.222;6.624;2022-12-07T00:46:32;6.60;1.00
3876;DHT22;1953;51.222;6.624;2022-12-07T00:51:16;6.60;1.00
3876;DHT22;1953;51.222;6.624;2022-12-07T00:56:04;6.70;1.00
3876;DHT22;1953;51.222;6.624;2022-12-07T01:00:47;6.70;1.00
3876;DHT22;1953;51.222;6.624;2022-12-07T01:05:31;6.70;1.00
3876;DHT22;1953;51.222;6.624;2022-12-07T01:10:14;6.70;1.00
3876;DHT22;1953;51.222;6.624;2022-12-07T01:14:56;6.70;1.00
3876;DHT22;1953;51.222;6.624;2022-12-07T01:19:39;6.70;1.00
3876;DHT22;1953;51.222;6.624;2022-12-07T01:24:22;6.70;1.00
3876;DHT22;1953;51.222;6.624;2022-12-07T01:29:05;6.70;1.00
3876;DHT22;1953;51.222;6.624;2022-12-07T01:33:49;6.70;1.00
3876;DHT22;1953;51.222;6.624;2022-12-07T01:38:32;6.60;1.00
3876;DHT22;1953;51.222;6.624;2022-12-07T01:43:17;6.60;1.00
3876;DHT22;1953;51.222;6.624;2022-12-07T01:48:01;6.60;1.00
3876;DHT22;1953;51.222;6.624;2022-12-07T01:52:45;6.60;1.00
3876;DHT22;1953;51.222;6.624;2022-12-07T01:57:31;6.50;1.00
3876;DHT22;1953;51.222;6.624;2022-12-07T02:02:20;6.50;1.00
3876;DHT22;1953;51.222;6.624;2022-12-07T02:07:04;6.50;1.00
3876;DHT22;1953;51.222;6.624;2022-12-07T02:11:47;6.50;1.00
3876;DHT22;1953;51.222;6.624;2022-12-07T02:16:36;6.50;1.00
3876;DHT22;1953;51.222;6.624;2022-12-07T02:21:27;6.50;1.00
3876;DHT22;1953;51.222;6.624;2022-12-07T02:31:55;6.40;1.00
3876;DHT22;1953;51.222;6.624;2022-12-07T02:36:42;6.40;1.00
3876;DHT22;1953;51.222;6.624;2022-12-07T02:41:28;6.30;1.00
3876;DHT22;1953;51.222;6.624;2022-12-07T02:46:14;6.30;1.00
3876;DHT22;1953;51.222;6.624;2022-12-07T02:51:00;6.30;1.00
3876;DHT22;1953;51.222;6.624;2022-12-07T02:55:42;6.30;1.00
3876;DHT22;1953;51.222;6.624;2022-12-07T03:00:25;6.30;1.00
3876;DHT22;1953;51.222;6.624;2022-12-07T03:05:20;6.30;1.00
3876;DHT22;1953;51.222;6.624;2022-12-07T03:10:13;6.20;1.00
3876;DHT22;1953;51.222;6.624;2022-12-07T03:15:00;6.20;1.00
3876;DHT22;1953;51.222;6.624;2022-12-07T03:19:45;6.20;1.00
3876;DHT22;1953;51.222;6.624;2022-12-07T03:24:31;6.10;1.00
3876;DHT22;1953;51.222;6.624;2022-12-07T03:29:22;6.10;1.00
3876;DHT22;1953;51.222;6.624;2022-12-07T03:34:10;6.10;1.00
3876;DHT22;1953;51.222;6.624;2022-12-07T03:38:56;6.10;1.00
3876;DHT22;1953;51.222;6.624;2022-12-07T03:43:40;6.10;1.00
3876;DHT22;1953;51.222;6.624;2022-12-07T03:48:28;6.10;1.00
3876;DHT22;1953;51.222;6.624;2022-12-07T03:53:17;6.10;1.00
3876;DHT22;1953;51.222;6.624;2022-12-07T03:58:04;6.00;1.00
3876;DHT22;1953;51.222;6.624;2022-12-07T04:02:47;6.00;1.00
3876;DHT22;1953;51.222;6.624;2022-12-07T04:07:34;5.90;1.00
3876;DHT22;1953;51.222;6.624;2022-12-07T04:12:16;5.90;1.00
3876;DHT22;1953;51.222;6.624;2022-12-07T04:16:59;5.90;1.00
3876;DHT22;1953;51.222;6.624;2022-12-07T04:21:41;5.90;1.00
3876;DHT22;1953;51.222;6.624;2022-12-07T04:26:25;6.90;1.00
3876;DHT22;1953;51.222;6.624;2022-12-07T04:31:07;5.90;1.00
3876;DHT22;1953;51.222;6.624;2022-12-07T04:35:50;5.90;1.00
3876;DHT22;1953;51.222;6.624;2022-12-07T04:40:32;5.80;1.00
3876;DHT22;1953;51.222;6.624;2022-12-07T04:45:16;5.80;1.00
3876;DHT22;1953;51.222;6.624;2022-12-07T04:49:58;5.80;1.00
3876;DHT22;1953;51.222;6.624;2022-12-07T04:54:41;5.80;1.00
3876;DHT22;1953;51.222;6.624;2022-12-07T04:59:23;5.80;1.00
3876;DHT22;1953;51.222;6.624;2022-12-07T05:04:08;5.80;1.00
3876;DHT22;1953;51.222;6.624;2022-12-07T05:08:50;5.90;1.00
3876;DHT22;1953;51.222;6.624;2022-12-07T05:13:33;5.80;1.00
3876;DHT22;1953;51.222;6.624;2022-12-07T05:18:16;5.90;1.00
3876;DHT22;1953;51.222;6.624;2022-12-07T05:23:00;5.80;1.00
3876;DHT22;1953;51.222;6.624;2022-12-07T05:27:42;5.90;1.00
3876;DHT22;1953;51.222;6.624;2022-12-07T05:32:24;5.90;1.00
3876;DHT22;1953;51.222;6.624;2022-12-07T05:37:07;5.80;1.00
3876;DHT22;1953;51.222;6.624;2022-12-07T05:41:51;5.90;1.00
3876;DHT22;1953;51.222;6.624;2022-12-07T05:46:51;5.90;1.00
3876;DHT22;1953;51.222;6.624;2022-12-07T05:51:33;5.90;1.00
3876;DHT22;1953;51.222;6.624;2022-12-07T05:56:15;5.90;1.00
3876;DHT22;1953;51.222;6.624;2022-12-07T06:00:59;5.90;1.00
3876;DHT22;1953;51.222;6.624;2022-12-07T06:05:42;5.90;1.00
3876;DHT22;1953;51.222;6.624;2022-12-07T06:10:24;6.00;1.00
3876;DHT22;1953;51.222;6.624;2022-12-07T06:15:07;6.00;1.00
3876;DHT22;1953;51.222;6.624;2022-12-07T06:19:51;5.90;1.00
3876;DHT22;1953;51.222;6.624;2022-12-07T06:24:33;5.90;1.00
3876;DHT22;1953;51.222;6.624;2022-12-07T06:29:16;5.90;1.00
3876;DHT22;1953;51.222;6.624;2022-12-07T06:34:00;5.90;1.00
3876;DHT22;1953;51.222;6.624;2022-12-07T06:38:44;6.00;1.00
3876;DHT22;1953;51.222;6.624;2022-12-07T06:43:26;6.00;1.00
3876;DHT22;1953;51.222;6.624;2022-12-07T06:48:09;5.90;1.00
3876;DHT22;1953;51.222;6.624;2022-12-07T06:52:51;5.90;1.00
3876;DHT22;1953;51.222;6.624;2022-12-07T06:57:35;5.90;1.00
3876;DHT22;1953;51.222;6.624;2022-12-07T07:02:17;6.00;1.00
3876;DHT22;1953;51.222;6.624;2022-12-07T07:07:00;6.00;1.00
3876;DHT22;1953;51.222;6.624;2022-12-07T07:11:42;6.00;1.00
3876;DHT22;1953;51.222;6.624;2022-12-07T07:16:26;6.00;1.00
3876;DHT22;1953;51.222;6.624;2022-12-07T07:21:09;6.00;1.00
3876;DHT22;1953;51.222;6.624;2022-12-07T07:25:51;6.00;1.00
3876;DHT22;1953;51.222;6.624;2022-12-07T07:30:33;6.00;1.00
3876;DHT22;1953;51.222;6.624;2022-12-07T07:35:17;6.00;1.00
3876;DHT22;1953;51.222;6.624;2022-12-07T07:40:00;5.90;1.00
3876;DHT22;1953;51.222;6.624;2022-12-07T07:44:42;5.90;1.00
3876;DHT22;1953;51.222;6.624;2022-12-07T07:49:25;5.90;1.00
3876;DHT22;1953;51.222;6.624;2022-12-07T07:54:09;5.80;1.00
3876;DHT22;1953;51.222;6.624;2022-12-07T07:58:51;5.70;1.00
3876;DHT22;1953;51.222;6.624;2022-12-07T08:03:34;5.60;1.00
3876;DHT22;1953;51.222;6.624;2022-12-07T08:08:17;5.60;1.00
3876;DHT22;1953;51.222;6.624;2022-12-07T08:13:00;5.60;1.00
3876;DHT22;1953;51.222;6.624;2022-12-07T08:17:55;5.50;1.00
3876;DHT22;1953;51.222;6.624;2022-12-07T08:22:38;5.50;1.00
3876;DHT22;1953;51.222;6.624;2022-12-07T08:27:20;5.50;1.00
3876;DHT22;1953;51.222;6.624;2022-12-07T08:32:09;5.60;1.00
3876;DHT22;1953;51.222;6.624;2022-12-07T08:36:51;5.60;1.00
3876;DHT22;1953;51.222;6.624;2022-12-07T08:41:34;5.60;1.00
3876;DHT22;1953;51.222;6.624;2022-12-07T08:46:19;5.70;1.00
3876;DHT22;1953;51.222;6.624;2022-12-07T08:51:04;5.80;1.00
3876;DHT22;1953;51.222;6.624;2022-12-07T08:55:47;5.90;1.00
3876;DHT22;1953;51.222;6.624;2022-12-07T09:00:30;6.00;1.00
3876;DHT22;1953;51.222;6.624;2022-12-07T09:05:13;6.00;1.00
3876;DHT22;1953;51.222;6.624;2022-12-07T09:09:58;6.20;1.00
3876;DHT22;1953;51.222;6.624;2022-12-07T09:14:40;6.30;1.00
3876;DHT22;1953;51.222;6.624;2022-12-07T09:19:23;6.40;1.00
3876;DHT22;1953;51.222;6.624;2022-12-07T09:24:06;6.40;1.00
3876;DHT22;1953;51.222;6.624;2022-12-07T09:28:50;6.40;1.00
3876;DHT22;1953;51.222;6.624;2022-12-07T09:33:32;6.40;1.00
3876;DHT22;1953;51.222;6.624;2022-12-07T09:38:15;6.40;1.00
3876;DHT22;1953;51.222;6.624;2022-12-07T09:42:57;6.40;1.00
3876;DHT22;1953;51.222;6.624;2022-12-07T09:47:41;6.50;1.00
3876;DHT22;1953;51.222;6.624;2022-12-07T09:52:27;6.60;1.00
3876;DHT22;1953;51.222;6.624;2022-12-07T09:57:11;6.70;1.00
3876;DHT22;1953;51.222;6.624;2022-12-07T10:01:54;6.80;1.00
3876;DHT22;1953;51.222;6.624;2022-12-07T10:06:37;6.90;1.00
3876;DHT22;1953;51.222;6.624;2022-12-07T10:11:20;7.00;1.00
3876;DHT22;1953;51.222;6.624;2022-12-07T10:16:03;7.10;1.00
3876;DHT22;1953;51.222;6.624;2022-12-07T10:20:46;7.20;1.00
3876;DHT22;1953;51.222;6.624;2022-12-07T10:25:32;7.20;1.00
3876;DHT22;1953;51.222;6.624;2022-12-07T10:30:15;7.30;1.00
3876;DHT22;1953;51.222;6.624;2022-12-07T10:35:23;7.30;1.00
3876;DHT22;1953;51.222;6.624;2022-12-07T10:40:25;7.30;1.00
3876;DHT22;1953;51.222;6.624;2022-12-07T10:45:12;7.40;1.00
3876;DHT22;1953;51.222;6.624;2022-12-07T10:50:17;7.40;1.00
3876;DHT22;1953;51.222;6.624;2022-12-07T10:55:10;7.40;1.00
3876;DHT22;1953;51.222;6.624;2022-12-07T11:00:04;7.40;1.00
3876;DHT22;1953;51.222;6.624;2022-12-07T11:05:02;7.40;1.00
3876;DHT22;1953;51.222;6.624;2022-12-07T11:10:00;7.50;1.00
3876;DHT22;1953;51.222;6.624;2022-12-07T11:14:48;7.60;1.00
3876;DHT22;1953;51.222;6.624;2022-12-07T11:19:49;7.60;1.00
3876;DHT22;1953;51.222;6.624;2022-12-07T11:24:49;7.60;1.00
3876;DHT22;1953;51.222;6.624;2022-12-07T11:29:55;7.70;1.00
3876;DHT22;1953;51.222;6.624;2022-12-07T11:34:48;7.70;1.00
3876;DHT22;1953;51.222;6.624;2022-12-07T11:39:41;7.90;1.00
3876;DHT22;1953;51.222;6.624;2022-12-07T11:44:31;8.00;1.00
3876;DHT22;1953;51.222;6.624;2022-12-07T11:49:20;8.10;1.00
3876;DHT22;1953;51.222;6.624;2022-12-07T11:54:13;8.20;1.00
3876;DHT22;1953;51.222;6.624;2022-12-07T11:59:02;8.10;1.00
3876;DHT22;1953;51.222;6.624;2022-12-07T12:03:48;8.00;1.00
3876;DHT22;1953;51.222;6.624;2022-12-07T12:09:53;8.10;1.00
3876;DHT22;1953;51.222;6.624;2022-12-07T12:14:45;8.10;1.00
3876;DHT22;1953;51.222;6.624;2022-12-07T12:19:34;8.30;1.00
3876;DHT22;1953;51.222;6.624;2022-12-07T12:24:20;8.40;1.00
3876;DHT22;1953;51.222;6.624;2022-12-07T12:29:13;8.60;1.00
3876;DHT22;1953;51.222;6.624;2022-12-07T12:34:03;8.80;1.00
3876;DHT22;1953;51.222;6.624;2022-12-07T12:38:48;9.20;1.00
3876;DHT22;1953;51.222;6.624;2022-12-07T12:43:51;9.20;1.00
3876;DHT22;1953;51.222;6.624;2022-12-07T12:48:37;9.10;1.00
3876;DHT22;1953;51.222;6.624;2022-12-07T12:53:23;8.90;1.00
3876;DHT22;1953;51.222;6.624;2022-12-07T13:03:28;8.70;1.00
3876;DHT22;1953;51.222;6.624;2022-12-07T13:08:16;8.70;1.00
3876;DHT22;1953;51.222;6.624;2022-12-07T13:13:03;8.60;1.00
3876;DHT22;1953;51.222;6.624;2022-12-07T13:18:02;8.70;1.00
3876;DHT22;1953;51.222;6.624;2022-12-07T13:22:50;8.70;1.00
3876;DHT22;1953;51.222;6.624;2022-12-07T13:27:37;8.70;1.00
3876;DHT22;1953;51.222;6.624;2022-12-07T13:32:24;8.70;1.00
3876;DHT22;1953;51.222;6.624;2022-12-07T13:37:14;8.60;1.00
3876;DHT22;1953;51.222;6.624;2022-12-07T13:41:58;8.70;1.00
3876;DHT22;1953;51.222;6.624;2022-12-07T13:46:49;8.60;1.00
3876;DHT22;1953;51.222;6.624;2022-12-07T13:51:36;8.60;1.00
3876;DHT22;1953;51.222;6.624;2022-12-07T13:56:22;8.60;1.00
3876;DHT22;1953;51.222;6.624;2022-12-07T14:01:05;8.60;1.00
3876;DHT22;1953;51.222;6.624;2022-12-07T14:06:04;8.60;1.00
3876;DHT22;1953;51.222;6.624;2022-12-07T14:10:55;8.50;1.00
3876;DHT22;1953;51.222;6.624;2022-12-07T14:15:38;8.50;1.00
3876;DHT22;1953;51.222;6.624;2022-12-07T14:20:30;8.60;1.00
3876;DHT22;1953;51.222;6.624;2022-12-07T14:25:20;8.60;1.00
3876;DHT22;1953;51.222;6.624;2022-12-07T14:30:04;8.60;1.00
3876;DHT22;1953;51.222;6.624;2022-12-07T14:34:58;8.50;1.00
3876;DHT22;1953;51.222;6.624;2022-12-07T14:39:41;8.50;1.00
3876;DHT22;1953;51.222;6.624;2022-12-07T14:44:25;8.50;1.00
3876;DHT22;1953;51.222;6.624;2022-12-07T14:49:07;8.50;1.00
3876;DHT22;1953;51.222;6.624;2022-12-07T14:53:50;8.40;1.00
3876;DHT22;1953;51.222;6.624;2022-12-07T14:58:34;8.40;1.00
3876;DHT22;1953;51.222;6.624;2022-12-07T15:03:17;8.30;1.00
3876;DHT22;1953;51.222;6.624;2022-12-07T15:08:00;8.30;1.00
3876;DHT22;1953;51.222;6.624;2022-12-07T15:12:43;8.20;1.00
3876;DHT22;1953;51.222;6.624;2022-12-07T15:17:25;8.10;1.00
3876;DHT22;1953;51.222;6.624;2022-12-07T15:22:09;8.00;1.00
3876;DHT22;1953;51.222;6.624;2022-12-07T15:26:52;7.90;1.00
3876;DHT22;1953;51.222;6.624;2022-12-07T15:31:35;7.80;1.00
3876;DHT22;1953;51.222;6.624;2022-12-07T15:36:19;7.60;1.00
3876;DHT22;1953;51.222;6.624;2022-12-07T15:41:04;7.50;1.00
3876;DHT22;1953;51.222;6.624;2022-12-07T15:45:49;7.40;1.00
3876;DHT22;1953;51.222;6.624;2022-12-07T15:50:32;7.40;1.00
3876;DHT22;1953;51.222;6.624;2022-12-07T15:55:14;7.30;1.00
3876;DHT22;1953;51.222;6.624;2022-12-07T15:59:58;7.20;1.00
3876;DHT22;1953;51.222;6.624;2022-12-07T16:04:41;7.20;1.00
3876;DHT22;1953;51.222;6.624;2022-12-07T16:09:23;7.20;1.00
3876;DHT22;1953;51.222;6.624;2022-12-07T16:14:06;7.20;1.00
3876;DHT22;1953;51.222;6.624;2022-12-07T16:18:50;7.10;1.00
3876;DHT22;1953;51.222;6.624;2022-12-07T16:23:33;7.10;1.00
3876;DHT22;1953;51.222;6.624;2022-12-07T16:28:15;7.10;1.00
3876;DHT22;1953;51.222;6.624;2022-12-07T16:32:57;7.00;1.00
3876;DHT22;1953;51.222;6.624;2022-12-07T16:37:43;7.00;1.00
3876;DHT22;1953;51.222;6.624;2022-12-07T16:42:25;7.00;1.00
3876;DHT22;1953;51.222;6.624;2022-12-07T16:47:08;7.00;1.00
3876;DHT22;1953;51.222;6.624;2022-12-07T16:51:51;7.00;1.00
3876;DHT22;1953;51.222;6.624;2022-12-07T16:56:34;7.00;1.00
3876;DHT22;1953;51.222;6.624;2022-12-07T17:01:19;6.90;1.00
3876;DHT22;1953;51.222;6.624;2022-12-07T17:06:02;7.00;1.00
3876;DHT22;1953;51.222;6.624;2022-12-07T17:10:45;7.00;1.00
3876;DHT22;1953;51.222;6.624;2022-12-07T17:15:29;7.00;1.00
3876;DHT22;1953;51.222;6.624;2022-12-07T17:20:11;7.00;1.00
3876;DHT22;1953;51.222;6.624;2022-12-07T17:24:55;6.90;1.00
3876;DHT22;1953;51.222;6.624;2022-12-07T17:29:37;6.90;1.00
3876;DHT22;1953;51.222;6.624;2022-12-07T17:34:21;7.00;1.00
3876;DHT22;1953;51.222;6.624;2022-12-07T17:39:07;6.90;1.00
3876;DHT22;1953;51.222;6.624;2022-12-07T17:43:50;7.00;1.00
3876;DHT22;1953;51.222;6.624;2022-12-07T17:48:32;6.90;1.00
3876;DHT22;1953;51.222;6.624;2022-12-07T17:53:16;6.90;1.00
3876;DHT22;1953;51.222;6.624;2022-12-07T17:57:59;7.00;1.00
3876;DHT22;1953;51.222;6.624;2022-12-07T18:02:41;6.90;1.00
3876;DHT22;1953;51.222;6.624;2022-12-07T18:07:24;6.90;1.00
3876;DHT22;1953;51.222;6.624;2022-12-07T18:12:07;6.80;1.00
3876;DHT22;1953;51.222;6.624;2022-12-07T18:16:50;6.90;1.00
3876;DHT22;1953;51.222;6.624;2022-12-07T18:21:32;6.80;1.00
3876;DHT22;1953;51.222;6.624;2022-12-07T18:26:18;6.80;1.00
3876;DHT22;1953;51.222;6.624;2022-12-07T18:31:02;6.80;1.00
3876;DHT22;1953;51.222;6.624;2022-12-07T18:35:45;6.80;1.00
3876;DHT22;1953;51.222;6.624;2022-12-07T18:40:28;6.70;1.00
3876;DHT22;1953;51.222;6.624;2022-12-07T18:45:10;6.70;1.00
3876;DHT22;1953;51.222;6.624;2022-12-07T18:49:54;6.70;1.00
3876;DHT22;1953;51.222;6.624;2022-12-07T18:54:37;6.70;1.00
3876;DHT22;1953;51.222;6.624;2022-12-07T18:59:19;6.60;1.00
3876;DHT22;1953;51.222;6.624;2022-12-07T19:04:20;6.60;1.00
3876;DHT22;1953;51.222;6.624;2022-12-07T19:09:04;6.60;1.00
3876;DHT22;1953;51.222;6.624;2022-12-07T19:13:46;6.60;1.00
3876;DHT22;1953;51.222;6.624;2022-12-07T19:18:29;6.50;1.00
3876;DHT22;1953;51.222;6.624;2022-12-07T19:23:12;6.50;1.00
3876;DHT22;1953;51.222;6.624;2022-12-07T19:27:55;6.50;1.00
3876;DHT22;1953;51.222;6.624;2022-12-07T19:32:38;6.50;1.00
3876;DHT22;1953;51.222;6.624;2022-12-07T19:37:20;6.40;1.00
3876;DHT22;1953;51.222;6.624;2022-12-07T19:42:03;6.50;1.00
3876;DHT22;1953;51.222;6.624;2022-12-07T19:46:48;6.40;1.00
3876;DHT22;1953;51.222;6.624;2022-12-07T19:51:31;6.40;1.00
3876;DHT22;1953;51.222;6.624;2022-12-07T19:56:14;6.40;1.00
3876;DHT22;1953;51.222;6.624;2022-12-07T20:01:01;6.40;1.00
3876;DHT22;1953;51.222;6.624;2022-12-07T20:05:45;6.40;1.00
3876;DHT22;1953;51.222;6.624;2022-12-07T20:10:27;6.40;1.00
3876;DHT22;1953;51.222;6.624;2022-12-07T20:15:10;6.40;1.00
3876;DHT22;1953;51.222;6.624;2022-12-07T20:19:52;6.40;1.00
3876;DHT22;1953;51.222;6.624;2022-12-07T20:24:36;6.30;1.00
3876;DHT22;1953;51.222;6.624;2022-12-07T20:29:21;6.30;1.00
3876;DHT22;1953;51.222;6.624;2022-12-07T20:34:04;6.30;1.00
3876;DHT22;1953;51.222;6.624;2022-12-07T20:38:46;6.20;1.00
3876;DHT22;1953;51.222;6.624;2022-12-07T20:43:30;6.20;1.00
3876;DHT22;1953;51.222;6.624;2022-12-07T20:48:13;6.20;1.00
3876;DHT22;1953;51.222;6.624;2022-12-07T20:52:55;6.20;1.00
3876;DHT22;1953;51.222;6.624;2022-12-07T20:57:38;6.20;1.00
3876;DHT22;1953;51.222;6.624;2022-12-07T21:02:22;6.20;1.00
3876;DHT22;1953;51.222;6.624;2022-12-07T21:07:04;6.20;1.00
3876;DHT22;1953;51.222;6.624;2022-12-07T21:11:47;6.20;1.00
3876;DHT22;1953;51.222;6.624;2022-12-07T21:16:31;6.10;1.00
3876;DHT22;1953;51.222;6.624;2022-12-07T21:21:16;6.20;1.00
3876;DHT22;1953;51.222;6.624;2022-12-07T21:25:59;6.10;1.00
3876;DHT22;1953;51.222;6.624;2022-12-07T21:30:42;6.10;1.00
3876;DHT22;1953;51.222;6.624;2022-12-07T21:35:25;6.10;1.00
3876;DHT22;1953;51.222;6.624;2022-12-07T21:40:09;6.10;1.00
3876;DHT22;1953;51.222;6.624;2022-12-07T21:44:52;6.10;1.00
3876;DHT22;1953;51.222;6.624;2022-12-07T21:49:34;6.00;1.00
3876;DHT22;1953;51.222;6.624;2022-12-07T21:54:17;6.00;1.00
3876;DHT22;1953;51.222;6.624;2022-12-07T21:59:03;6.00;1.00
3876;DHT22;1953;51.222;6.624;2022-12-07T22:03:46;6.00;1.00
3876;DHT22;1953;51.222;6.624;2022-12-07T22:08:28;5.90;1.00
3876;DHT22;1953;51.222;6.624;2022-12-07T22:13:11;5.90;1.00
3876;DHT22;1953;51.222;6.624;2022-12-07T22:17:54;5.90;1.00
3876;DHT22;1953;51.222;6.624;2022-12-07T22:22:37;5.90;1.00
3876;DHT22;1953;51.222;6.624;2022-12-07T22:27:20;5.90;1.00
3876;DHT22;1953;51.222;6.624;2022-12-07T22:32:02;5.90;1.00
3876;DHT22;1953;51.222;6.624;2022-12-07T22:36:46;5.90;1.00
3876;DHT22;1953;51.222;6.624;2022-12-07T22:41:30;5.90;1.00
3876;DHT22;1953;51.222;6.624;2022-12-07T22:46:12;5.90;1.00
3876;DHT22;1953;51.222;6.624;2022-12-07T22:50:55;5.90;1.00
3876;DHT22;1953;51.222;6.624;2022-12-07T22:55:39;5.90;1.00
3876;DHT22;1953;51.222;6.624;2022-12-07T23:00:21;5.90;1.00
3876;DHT22;1953;51.222;6.624;2022-12-07T23:05:04;5.90;1.00
3876;DHT22;1953;51.222;6.624;2022-12-07T23:09:47;5.90;1.00
3876;DHT22;1953;51.222;6.624;2022-12-07T23:14:32;5.90;1.00
3876;DHT22;1953;51.222;6.624;2022-12-07T23:19:15;5.90;1.00
3876;DHT22;1953;51.222;6.624;2022-12-07T23:23:57;5.90;1.00
3876;DHT22;1953;51.222;6.624;2022-12-07T23:28:40;5.80;1.00
3876;DHT22;1953;51.222;6.624;2022-12-07T23:33:23;5.70;1.00
3876;DHT22;1953;51.222;6.624;2022-12-07T23:38:06;5.70;1.00
3876;DHT22;1953;51.222;6.624;2022-12-07T23:42:48;5.70;1.00
3876;DHT22;1953;51.222;6.624;2022-12-07T23:47:30;5.70;1.00
3876;DHT22;1953;51.222;6.624;2022-12-07T23:52:14;5.70;1.00
3876;DHT22;1953;51.222;6.624;2022-12-07T23:56:57;5.70;1.00
